sensor_id;sensor_type;location;lat;lon;timestamp;pressure;altitude;pressure_sealevel;temperature;humidity
76024;BME280;64719;52.124;6.226;2023-04-21T00:01:18;101686.47;;;7.76;100.00
76024;BME280;64719;52.124;6.226;2023-04-21T00:03:45;101684.41;;;7.78;100.00
76024;BME280;64719;52.124;6.226;2023-04-21T00:06:12;101675.66;;;7.76;100.00
76024;BME280;64719;52.124;6.226;2023-04-21T00:08:39;101683.78;;;7.76;100.00
76024;BME280;64719;52.124;6.226;2023-04-21T00:11:07;101669.91;;;7.86;100.00
76024;BME280;64719;52.124;6.226;2023-04-21T00:13:33;101667.41;;;7.84;100.00
76024;BME280;64719;52.124;6.226;2023-04-21T00:16:00;101664.13;;;7.89;100.00
76024;BME280;64719;52.124;6.226;2023-04-21T00:18:27;101666.41;;;7.85;100.00
76024;BME280;64719;52.124;6.226;2023-04-21T00:20:53;101651.78;;;7.80;100.00
76024;BME280;64719;52.124;6.226;2023-04-21T00:23:20;101651.78;;;7.80;100.00
76024;BME280;64719;52.124;6.226;2023-04-21T00:25:47;101646.56;;;7.78;100.00
76024;BME280;64719;52.124;6.226;2023-04-21T00:28:15;101640.34;;;7.78;100.00
76024;BME280;64719;52.124;6.226;2023-04-21T00:30:41;101634.09;;;7.77;100.00
76024;BME280;64719;52.124;6.226;2023-04-21T00:33:07;101626.09;;;7.90;100.00
76024;BME280;64719;52.124;6.226;2023-04-21T00:35:34;101636.09;;;7.90;100.00
76024;BME280;64719;52.124;6.226;2023-04-21T00:38:01;101624.84;;;7.86;100.00
76024;BME280;64719;52.124;6.226;2023-04-21T00:40:27;101612.50;;;7.77;100.00
76024;BME280;64719;52.124;6.226;2023-04-21T00:42:54;101609.41;;;7.80;100.00
76024;BME280;64719;52.124;6.226;2023-04-21T00:45:22;101616.47;;;7.81;100.00
76024;BME280;64719;52.124;6.226;2023-04-21T00:47:48;101615.88;;;7.86;100.00
76024;BME280;64719;52.124;6.226;2023-04-21T00:50:15;101619.81;;;7.83;100.00
76024;BME280;64719;52.124;6.226;2023-04-21T00:52:42;101610.06;;;7.82;100.00
76024;BME280;64719;52.124;6.226;2023-04-21T00:55:11;101611.72;;;7.83;100.00
76024;BME280;64719;52.124;6.226;2023-04-21T00:57:38;101611.53;;;7.85;100.00
76024;BME280;64719;52.124;6.226;2023-04-21T01:00:05;101601.56;;;7.85;100.00
76024;BME280;64719;52.124;6.226;2023-04-21T01:02:37;101607.97;;;7.84;100.00
76024;BME280;64719;52.124;6.226;2023-04-21T01:05:04;101610.88;;;7.83;100.00
76024;BME280;64719;52.124;6.226;2023-04-21T01:07:33;101607.09;;;7.77;100.00
76024;BME280;64719;52.124;6.226;2023-04-21T01:10:00;101601.94;;;7.82;100.00
76024;BME280;64719;52.124;6.226;2023-04-21T01:12:26;101599.66;;;7.86;100.00
76024;BME280;64719;52.124;6.226;2023-04-21T01:14:53;101603.59;;;7.83;100.00
76024;BME280;64719;52.124;6.226;2023-04-21T01:17:19;101597.63;;;7.88;100.00
76024;BME280;64719;52.124;6.226;2023-04-21T01:19:49;101591.38;;;7.87;100.00
76024;BME280;64719;52.124;6.226;2023-04-21T01:22:18;101595.50;;;7.83;100.00
76024;BME280;64719;52.124;6.226;2023-04-21T01:24:46;101595.13;;;7.86;100.00
76024;BME280;64719;52.124;6.226;2023-04-21T01:27:15;101590.59;;;7.93;100.00
76024;BME280;64719;52.124;6.226;2023-04-21T01:29:43;101591.81;;;7.91;100.00
76024;BME280;64719;52.124;6.226;2023-04-21T01:32:13;101586.22;;;7.92;100.00
76024;BME280;64719;52.124;6.226;2023-04-21T01:34:40;101590.00;;;7.98;100.00
76024;BME280;64719;52.124;6.226;2023-04-21T01:37:07;101584.78;;;7.96;100.00
76024;BME280;64719;52.124;6.226;2023-04-21T01:39:37;101585.44;;;7.98;100.00
76024;BME280;64719;52.124;6.226;2023-04-21T01:42:04;101585.44;;;7.98;100.00
76024;BME280;64719;52.124;6.226;2023-04-21T01:44:31;101593.81;;;8.03;100.00
76024;BME280;64719;52.124;6.226;2023-04-21T01:46:57;101597.91;;;7.99;100.00
76024;BME280;64719;52.124;6.226;2023-04-21T01:49:24;101586.09;;;8.00;100.00
76024;BME280;64719;52.124;6.226;2023-04-21T01:51:50;101583.38;;;8.00;100.00
76024;BME280;64719;52.124;6.226;2023-04-21T01:54:17;101577.13;;;8.00;100.00
76024;BME280;64719;52.124;6.226;2023-04-21T01:56:44;101575.88;;;8.02;100.00
76024;BME280;64719;52.124;6.226;2023-04-21T01:59:11;101581.28;;;8.02;100.00
76024;BME280;64719;52.124;6.226;2023-04-21T02:01:38;101578.41;;;8.04;100.00
76024;BME280;64719;52.124;6.226;2023-04-21T02:04:04;101580.03;;;7.98;100.00
76024;BME280;64719;52.124;6.226;2023-04-21T02:06:31;101573.38;;;8.01;100.00
76024;BME280;64719;52.124;6.226;2023-04-21T02:08:57;101574.22;;;8.01;100.00
76024;BME280;64719;52.124;6.226;2023-04-21T02:11:24;101569.09;;;8.06;100.00
76024;BME280;64719;52.124;6.226;2023-04-21T02:13:52;101572.38;;;8.02;100.00
76024;BME280;64719;52.124;6.226;2023-04-21T02:16:19;101575.50;;;8.05;100.00
76024;BME280;64719;52.124;6.226;2023-04-21T02:18:45;101580.72;;;8.07;100.00
76024;BME280;64719;52.124;6.226;2023-04-21T02:21:12;101578.00;;;8.07;100.00
76024;BME280;64719;52.124;6.226;2023-04-21T02:23:39;101584.44;;;8.06;100.00
76024;BME280;64719;52.124;6.226;2023-04-21T02:26:06;101581.56;;;8.07;100.00
76024;BME280;64719;52.124;6.226;2023-04-21T02:28:32;101580.50;;;8.08;100.00
76024;BME280;64719;52.124;6.226;2023-04-21T02:31:00;101582.41;;;8.08;100.00
76024;BME280;64719;52.124;6.226;2023-04-21T02:33:27;101586.31;;;8.05;100.00
76024;BME280;64719;52.124;6.226;2023-04-21T02:35:53;101601.91;;;8.03;100.00
76024;BME280;64719;52.124;6.226;2023-04-21T02:38:19;101601.00;;;7.96;100.00
76024;BME280;64719;52.124;6.226;2023-04-21T02:40:46;101602.31;;;8.00;100.00
76024;BME280;64719;52.124;6.226;2023-04-21T02:43:14;101600.81;;;7.98;100.00
76024;BME280;64719;52.124;6.226;2023-04-21T02:45:41;101590.78;;;7.92;100.00
76024;BME280;64719;52.124;6.226;2023-04-21T02:48:09;101596.38;;;7.90;100.00
76024;BME280;64719;52.124;6.226;2023-04-21T02:50:35;101595.50;;;7.83;100.00
76024;BME280;64719;52.124;6.226;2023-04-21T02:53:02;101605.06;;;7.86;100.00
76024;BME280;64719;52.124;6.226;2023-04-21T02:55:29;101604.25;;;7.85;100.00
76024;BME280;64719;52.124;6.226;2023-04-21T02:57:55;101581.34;;;7.81;100.00
76024;BME280;64719;52.124;6.226;2023-04-21T03:00:22;101576.78;;;7.82;100.00
76024;BME280;64719;52.124;6.226;2023-04-21T03:02:48;101576.78;;;7.82;100.00
76024;BME280;64719;52.124;6.226;2023-04-21T03:05:18;101583.81;;;7.76;100.00
76024;BME280;64719;52.124;6.226;2023-04-21T03:07:44;101583.81;;;7.76;100.00
76024;BME280;64719;52.124;6.226;2023-04-21T03:10:11;101581.13;;;7.76;100.00
76024;BME280;64719;52.124;6.226;2023-04-21T03:12:37;101571.13;;;7.77;100.00
76024;BME280;64719;52.124;6.226;2023-04-21T03:15:04;101568.44;;;7.77;100.00
76024;BME280;64719;52.124;6.226;2023-04-21T03:17:31;101555.75;;;7.77;100.00
76024;BME280;64719;52.124;6.226;2023-04-21T03:19:58;101558.66;;;7.76;100.00
76024;BME280;64719;52.124;6.226;2023-04-21T03:22:25;101564.44;;;7.73;100.00
76024;BME280;64719;52.124;6.226;2023-04-21T03:24:53;101571.97;;;7.77;100.00
76024;BME280;64719;52.124;6.226;2023-04-21T03:27:19;101575.91;;;7.75;100.00
76024;BME280;64719;52.124;6.226;2023-04-21T03:29:46;101591.06;;;7.76;100.00
76024;BME280;64719;52.124;6.226;2023-04-21T03:32:12;101585.94;;;7.81;100.00
76024;BME280;64719;52.124;6.226;2023-04-21T03:34:40;101574.47;;;7.79;100.00
76024;BME280;64719;52.124;6.226;2023-04-21T03:37:07;101568.69;;;7.82;100.00
76024;BME280;64719;52.124;6.226;2023-04-21T03:39:34;101561.81;;;7.79;100.00
76024;BME280;64719;52.124;6.226;2023-04-21T03:42:01;101564.72;;;7.78;100.00
76024;BME280;64719;52.124;6.226;2023-04-21T03:44:29;101565.53;;;7.78;100.00
76024;BME280;64719;52.124;6.226;2023-04-21T03:46:55;101565.09;;;7.75;100.00
76024;BME280;64719;52.124;6.226;2023-04-21T03:49:22;101572.81;;;7.78;100.00
76024;BME280;64719;52.124;6.226;2023-04-21T03:51:48;101567.59;;;7.76;100.00
76024;BME280;64719;52.124;6.226;2023-04-21T03:54:15;101559.44;;;7.70;100.00
76024;BME280;64719;52.124;6.226;2023-04-21T03:56:43;101558.47;;;7.77;100.00
76024;BME280;64719;52.124;6.226;2023-04-21T03:59:09;101559.50;;;7.76;100.00
76024;BME280;64719;52.124;6.226;2023-04-21T04:01:36;101556.81;;;7.76;100.00
76024;BME280;64719;52.124;6.226;2023-04-21T04:04:02;101554.69;;;7.72;100.00
76024;BME280;64719;52.124;6.226;2023-04-21T04:06:29;101558.00;;;7.74;100.00
76024;BME280;64719;52.124;6.226;2023-04-21T04:08:56;101562.78;;;7.72;100.00
76024;BME280;64719;52.124;6.226;2023-04-21T04:11:23;101562.16;;;7.70;100.00
76024;BME280;64719;52.124;6.226;2023-04-21T04:13:51;101561.28;;;7.69;100.00
76024;BME280;64719;52.124;6.226;2023-04-21T04:16:17;101558.22;;;7.72;100.00
76024;BME280;64719;52.124;6.226;2023-04-21T04:18:44;101559.25;;;7.71;100.00
76024;BME280;64719;52.124;6.226;2023-04-21T04:21:10;101558.22;;;7.72;100.00
76024;BME280;64719;52.124;6.226;2023-04-21T04:23:37;101559.50;;;7.76;100.00
76024;BME280;64719;52.124;6.226;2023-04-21T04:26:03;101558.66;;;7.76;100.00
76024;BME280;64719;52.124;6.226;2023-04-21T04:28:30;101564.06;;;7.76;100.00
76024;BME280;64719;52.124;6.226;2023-04-21T04:30:59;101560.13;;;7.78;100.00
76024;BME280;64719;52.124;6.226;2023-04-21T04:33:27;101558.28;;;7.79;100.00
76024;BME280;64719;52.124;6.226;2023-04-21T04:35:53;101559.94;;;7.80;100.00
76024;BME280;64719;52.124;6.226;2023-04-21T04:38:20;101552.03;;;7.78;100.00
76024;BME280;64719;52.124;6.226;2023-04-21T04:40:52;101556.22;;;7.81;100.00
76024;BME280;64719;52.124;6.226;2023-04-21T04:43:18;101564.13;;;7.82;100.00
76024;BME280;64719;52.124;6.226;2023-04-21T04:45:45;101566.81;;;7.82;100.00
76024;BME280;64719;52.124;6.226;2023-04-21T04:48:14;101558.53;;;7.84;100.00
76024;BME280;64719;52.124;6.226;2023-04-21T04:50:40;101554.78;;;7.85;100.00
76024;BME280;64719;52.124;6.226;2023-04-21T04:53:07;101556.84;;;7.83;100.00
76024;BME280;64719;52.124;6.226;2023-04-21T04:55:33;101556.63;;;7.84;100.00
76024;BME280;64719;52.124;6.226;2023-04-21T04:58:00;101558.34;;;7.85;100.00
76024;BME280;64719;52.124;6.226;2023-04-21T05:00:27;101539.41;;;7.85;100.00
76024;BME280;64719;52.124;6.226;2023-04-21T05:02:53;101533.81;;;7.87;100.00
76024;BME280;64719;52.124;6.226;2023-04-21T05:05:22;101565.84;;;7.90;100.00
76024;BME280;64719;52.124;6.226;2023-04-21T05:07:49;101571.06;;;7.91;100.00
76024;BME280;64719;52.124;6.226;2023-04-21T05:10:15;101578.97;;;7.93;100.00
76024;BME280;64719;52.124;6.226;2023-04-21T05:12:42;101570.47;;;7.96;100.00
76024;BME280;64719;52.124;6.226;2023-04-21T05:15:09;101553.22;;;7.97;100.00
76024;BME280;64719;52.124;6.226;2023-04-21T05:17:36;101568.19;;;7.99;100.00
76024;BME280;64719;52.124;6.226;2023-04-21T05:20:03;101559.69;;;8.02;100.00
76024;BME280;64719;52.124;6.226;2023-04-21T05:22:31;101565.34;;;8.07;100.00
76024;BME280;64719;52.124;6.226;2023-04-21T05:24:57;101562.69;;;8.14;100.00
76024;BME280;64719;52.124;6.226;2023-04-21T05:27:24;101571.84;;;8.19;100.00
76024;BME280;64719;52.124;6.226;2023-04-21T05:29:51;101575.47;;;8.26;100.00
76024;BME280;64719;52.124;6.226;2023-04-21T05:32:18;101577.56;;;8.31;100.00
76024;BME280;64719;52.124;6.226;2023-04-21T05:34:45;101580.91;;;8.33;100.00
76024;BME280;64719;52.124;6.226;2023-04-21T05:37:11;101582.81;;;8.39;100.00
76024;BME280;64719;52.124;6.226;2023-04-21T05:39:39;101578.47;;;8.44;100.00
76024;BME280;64719;52.124;6.226;2023-04-21T05:42:08;101583.50;;;8.47;100.00
76024;BME280;64719;52.124;6.226;2023-04-21T05:44:35;101590.19;;;8.51;100.00
76024;BME280;64719;52.124;6.226;2023-04-21T05:47:03;101585.59;;;8.52;100.00
76024;BME280;64719;52.124;6.226;2023-04-21T05:49:29;101583.53;;;8.54;100.00
76024;BME280;64719;52.124;6.226;2023-04-21T05:51:56;101582.47;;;8.55;100.00
76024;BME280;64719;52.124;6.226;2023-04-21T05:54:22;101584.59;;;8.59;100.00
76024;BME280;64719;52.124;6.226;2023-04-21T05:56:50;101575.25;;;8.62;100.00
76024;BME280;64719;52.124;6.226;2023-04-21T05:59:16;101581.72;;;8.67;100.00
76024;BME280;64719;52.124;6.226;2023-04-21T06:01:43;101581.75;;;8.74;100.00
76024;BME280;64719;52.124;6.226;2023-04-21T06:04:10;101582.81;;;8.79;100.00
76024;BME280;64719;52.124;6.226;2023-04-21T06:06:36;101582.63;;;8.81;100.00
76024;BME280;64719;52.124;6.226;2023-04-21T06:09:03;101565.31;;;8.82;100.00
76024;BME280;64719;52.124;6.226;2023-04-21T06:11:29;101565.56;;;8.87;100.00
76024;BME280;64719;52.124;6.226;2023-04-21T06:13:57;101564.53;;;8.88;100.00
76024;BME280;64719;52.124;6.226;2023-04-21T06:16:25;101564.97;;;8.91;100.00
76024;BME280;64719;52.124;6.226;2023-04-21T06:18:52;101559.75;;;8.90;100.00
76024;BME280;64719;52.124;6.226;2023-04-21T06:21:18;101559.34;;;8.93;100.00
76024;BME280;64719;52.124;6.226;2023-04-21T06:23:45;101566.63;;;8.92;100.00
76024;BME280;64719;52.124;6.226;2023-04-21T06:26:11;101561.63;;;8.96;100.00
76024;BME280;64719;52.124;6.226;2023-04-21T06:28:38;101564.59;;;9.01;100.00
76024;BME280;64719;52.124;6.226;2023-04-21T06:31:05;101565.63;;;9.00;100.00
76024;BME280;64719;52.124;6.226;2023-04-21T06:33:34;101564.78;;;8.99;100.00
76024;BME280;64719;52.124;6.226;2023-04-21T06:36:00;101570.63;;;9.03;100.00
76024;BME280;64719;52.124;6.226;2023-04-21T06:38:27;101576.66;;;9.05;100.00
76024;BME280;64719;52.124;6.226;2023-04-21T06:40:53;101575.63;;;9.06;100.00
76024;BME280;64719;52.124;6.226;2023-04-21T06:43:20;101572.13;;;9.12;100.00
76024;BME280;64719;52.124;6.226;2023-04-21T06:45:46;101567.53;;;9.12;100.00
76024;BME280;64719;52.124;6.226;2023-04-21T06:48:14;101569.00;;;9.15;100.00
76024;BME280;64719;52.124;6.226;2023-04-21T06:50:41;101569.00;;;9.15;100.00
76024;BME280;64719;52.124;6.226;2023-04-21T06:53:08;101569.84;;;9.22;100.00
76024;BME280;64719;52.124;6.226;2023-04-21T06:55:35;101563.63;;;9.41;100.00
76024;BME280;64719;52.124;6.226;2023-04-21T06:58:02;101556.13;;;9.50;100.00
76024;BME280;64719;52.124;6.226;2023-04-21T07:00:28;101558.00;;;9.49;100.00
76024;BME280;64719;52.124;6.226;2023-04-21T07:02:55;101556.53;;;9.53;100.00
76024;BME280;64719;52.124;6.226;2023-04-21T07:05:22;101569.28;;;9.53;100.00
76024;BME280;64719;52.124;6.226;2023-04-21T07:07:49;101556.97;;;9.63;100.00
76024;BME280;64719;52.124;6.226;2023-04-21T07:10:16;101563.84;;;9.66;100.00
76024;BME280;64719;52.124;6.226;2023-04-21T07:12:44;101569.06;;;9.67;100.00
76024;BME280;64719;52.124;6.226;2023-04-21T07:15:10;101563.22;;;9.57;100.00
76024;BME280;64719;52.124;6.226;2023-04-21T07:17:37;101569.47;;;9.51;100.00
76024;BME280;64719;52.124;6.226;2023-04-21T07:20:05;101563.84;;;9.53;100.00
76024;BME280;64719;52.124;6.226;2023-04-21T07:22:33;101568.44;;;9.52;100.00
76024;BME280;64719;52.124;6.226;2023-04-21T07:25:00;101555.72;;;9.53;100.00
76024;BME280;64719;52.124;6.226;2023-04-21T07:27:30;101564.25;;;9.56;100.00
76024;BME280;64719;52.124;6.226;2023-04-21T07:29:57;101570.13;;;9.66;100.00
76024;BME280;64719;52.124;6.226;2023-04-21T07:32:25;101576.78;;;9.77;100.00
76024;BME280;64719;52.124;6.226;2023-04-21T07:34:51;101567.59;;;9.78;100.00
76024;BME280;64719;52.124;6.226;2023-04-21T07:37:18;101573.00;;;9.71;100.00
76024;BME280;64719;52.124;6.226;2023-04-21T07:39:46;101569.28;;;9.66;100.00
76024;BME280;64719;52.124;6.226;2023-04-21T07:42:12;101568.84;;;9.69;100.00
76024;BME280;64719;52.124;6.226;2023-04-21T07:44:39;101566.78;;;9.71;100.00
76024;BME280;64719;52.124;6.226;2023-04-21T07:47:06;101574.28;;;9.75;100.00
76024;BME280;64719;52.124;6.226;2023-04-21T07:49:32;101557.81;;;9.77;100.00
76024;BME280;64719;52.124;6.226;2023-04-21T07:51:59;101567.81;;;9.76;100.00
76024;BME280;64719;52.124;6.226;2023-04-21T07:54:25;101562.81;;;9.73;100.00
76024;BME280;64719;52.124;6.226;2023-04-21T07:56:53;101554.25;;;9.76;100.00
76024;BME280;64719;52.124;6.226;2023-04-21T07:59:20;101561.97;;;9.73;100.00
76024;BME280;64719;52.124;6.226;2023-04-21T08:01:46;101557.41;;;9.80;100.00
76024;BME280;64719;52.124;6.226;2023-04-21T08:04:15;101564.69;;;9.86;100.00
76024;BME280;64719;52.124;6.226;2023-04-21T08:06:42;101558.44;;;9.85;100.00
76024;BME280;64719;52.124;6.226;2023-04-21T08:09:09;101560.50;;;9.90;100.00
76024;BME280;64719;52.124;6.226;2023-04-21T08:11:35;101557.16;;;9.94;100.00
76024;BME280;64719;52.124;6.226;2023-04-21T08:14:03;101556.53;;;9.99;100.00
76024;BME280;64719;52.124;6.226;2023-04-21T08:16:30;101555.28;;;9.95;100.00
76024;BME280;64719;52.124;6.226;2023-04-21T08:18:56;101558.41;;;10.05;100.00
76024;BME280;64719;52.124;6.226;2023-04-21T08:21:23;101551.31;;;10.10;100.00
76024;BME280;64719;52.124;6.226;2023-04-21T08:23:49;101563.41;;;10.21;100.00
76024;BME280;64719;52.124;6.226;2023-04-21T08:26:16;101559.03;;;10.33;100.00
76024;BME280;64719;52.124;6.226;2023-04-21T08:28:43;101552.75;;;10.39;100.00
76024;BME280;64719;52.124;6.226;2023-04-21T08:31:11;101555.63;;;10.50;100.00
76024;BME280;64719;52.124;6.226;2023-04-21T08:33:37;101554.53;;;10.64;100.00
76024;BME280;64719;52.124;6.226;2023-04-21T08:36:04;101558.53;;;10.55;99.44
76024;BME280;64719;52.124;6.226;2023-04-21T08:38:31;101561.19;;;10.68;99.09
76024;BME280;64719;52.124;6.226;2023-04-21T08:40:58;101564.75;;;10.69;99.17
76024;BME280;64719;52.124;6.226;2023-04-21T08:43:25;101560.53;;;10.79;98.49
76024;BME280;64719;52.124;6.226;2023-04-21T08:45:52;101553.47;;;11.09;98.30
76024;BME280;64719;52.124;6.226;2023-04-21T08:48:21;101553.03;;;11.44;96.78
76024;BME280;64719;52.124;6.226;2023-04-21T08:50:50;101558.47;;;11.44;95.54
76024;BME280;64719;52.124;6.226;2023-04-21T08:53:16;101574.28;;;11.22;95.63
76024;BME280;64719;52.124;6.226;2023-04-21T08:55:43;101572.09;;;10.99;97.09
76024;BME280;64719;52.124;6.226;2023-04-21T08:58:10;101564.06;;;10.80;97.32
76024;BME280;64719;52.124;6.226;2023-04-21T09:00:37;101577.63;;;10.80;97.28
76024;BME280;64719;52.124;6.226;2023-04-21T09:03:05;101569.81;;;10.96;97.50
76024;BME280;64719;52.124;6.226;2023-04-21T09:05:33;101565.16;;;11.10;96.92
76024;BME280;64719;52.124;6.226;2023-04-21T09:08:09;101569.47;;;11.24;96.72
76024;BME280;64719;52.124;6.226;2023-04-21T09:10:42;101567.00;;;11.16;96.64
76024;BME280;64719;52.124;6.226;2023-04-21T09:13:09;101574.13;;;11.48;95.41
76024;BME280;64719;52.124;6.226;2023-04-21T09:15:39;101578.63;;;11.67;95.12
76024;BME280;64719;52.124;6.226;2023-04-21T09:18:10;101578.53;;;11.80;94.35
76024;BME280;64719;52.124;6.226;2023-04-21T09:20:39;101568.81;;;12.33;91.94
76024;BME280;64719;52.124;6.226;2023-04-21T09:23:06;101570.84;;;12.38;90.64
76024;BME280;64719;52.124;6.226;2023-04-21T09:25:33;101568.03;;;12.44;91.22
76024;BME280;64719;52.124;6.226;2023-04-21T09:27:59;101563.22;;;12.46;90.48
76024;BME280;64719;52.124;6.226;2023-04-21T09:30:26;101561.16;;;12.78;90.69
76024;BME280;64719;52.124;6.226;2023-04-21T09:32:55;101555.34;;;13.11;88.69
76024;BME280;64719;52.124;6.226;2023-04-21T09:35:26;101570.25;;;12.72;88.02
76024;BME280;64719;52.124;6.226;2023-04-21T09:37:55;101569.56;;;12.76;88.85
76024;BME280;64719;52.124;6.226;2023-04-21T09:40:21;101566.16;;;12.81;88.91
76024;BME280;64719;52.124;6.226;2023-04-21T09:42:48;101554.72;;;13.09;87.81
76024;BME280;64719;52.124;6.226;2023-04-21T09:45:15;101560.63;;;13.06;88.36
76024;BME280;64719;52.124;6.226;2023-04-21T09:47:42;101569.63;;;12.70;88.55
76024;BME280;64719;52.124;6.226;2023-04-21T09:50:10;101570.63;;;12.75;89.06
76024;BME280;64719;52.124;6.226;2023-04-21T09:52:38;101573.66;;;12.49;90.10
76024;BME280;64719;52.124;6.226;2023-04-21T09:55:10;101567.22;;;12.44;90.06
76024;BME280;64719;52.124;6.226;2023-04-21T09:57:37;101563.81;;;12.30;90.16
76024;BME280;64719;52.124;6.226;2023-04-21T10:00:06;101557.84;;;12.58;90.60
76024;BME280;64719;52.124;6.226;2023-04-21T10:02:34;101565.19;;;12.57;89.69
76024;BME280;64719;52.124;6.226;2023-04-21T10:05:02;101562.47;;;12.75;89.18
76024;BME280;64719;52.124;6.226;2023-04-21T10:07:30;101560.25;;;13.02;88.56
76024;BME280;64719;52.124;6.226;2023-04-21T10:09:58;101562.75;;;12.85;89.01
76024;BME280;64719;52.124;6.226;2023-04-21T10:12:27;101555.59;;;13.21;87.41
76024;BME280;64719;52.124;6.226;2023-04-21T10:14:55;101554.13;;;13.36;86.37
76024;BME280;64719;52.124;6.226;2023-04-21T10:17:22;101553.66;;;13.51;85.92
76024;BME280;64719;52.124;6.226;2023-04-21T10:19:51;101558.72;;;13.36;86.70
76024;BME280;64719;52.124;6.226;2023-04-21T10:22:27;101550.16;;;13.62;86.94
76024;BME280;64719;52.124;6.226;2023-04-21T10:24:54;101546.50;;;13.38;85.80
76024;BME280;64719;52.124;6.226;2023-04-21T10:27:34;101542.50;;;13.41;86.46
76024;BME280;64719;52.124;6.226;2023-04-21T10:30:02;101534.72;;;13.67;85.95
76024;BME280;64719;52.124;6.226;2023-04-21T10:32:43;101533.59;;;13.98;83.35
76024;BME280;64719;52.124;6.226;2023-04-21T10:35:10;101528.47;;;13.90;83.49
76024;BME280;64719;52.124;6.226;2023-04-21T10:37:36;101522.78;;;14.14;82.62
76024;BME280;64719;52.124;6.226;2023-04-21T10:40:04;101521.97;;;14.77;80.64
76024;BME280;64719;52.124;6.226;2023-04-21T10:42:35;101517.84;;;14.62;79.07
76024;BME280;64719;52.124;6.226;2023-04-21T10:45:08;101520.59;;;14.62;78.80
76024;BME280;64719;52.124;6.226;2023-04-21T10:47:38;101522.16;;;14.47;79.44
76024;BME280;64719;52.124;6.226;2023-04-21T10:50:15;101513.78;;;14.77;78.31
76024;BME280;64719;52.124;6.226;2023-04-21T10:52:48;101516.50;;;15.05;78.27
76024;BME280;64719;52.124;6.226;2023-04-21T10:55:17;101511.97;;;15.10;77.94
76024;BME280;64719;52.124;6.226;2023-04-21T10:57:46;101507.25;;;15.22;77.03
76024;BME280;64719;52.124;6.226;2023-04-21T11:00:16;101514.03;;;14.75;77.80
76024;BME280;64719;52.124;6.226;2023-04-21T11:02:43;101508.41;;;14.42;78.42
76024;BME280;64719;52.124;6.226;2023-04-21T11:05:10;101509.75;;;14.28;80.25
76024;BME280;64719;52.124;6.226;2023-04-21T11:07:36;101503.31;;;14.34;80.51
76024;BME280;64719;52.124;6.226;2023-04-21T11:10:04;101508.31;;;14.25;79.50
76024;BME280;64719;52.124;6.226;2023-04-21T11:12:33;101496.56;;;14.02;79.25
76024;BME280;64719;52.124;6.226;2023-04-21T11:15:04;101493.09;;;14.06;80.26
76024;BME280;64719;52.124;6.226;2023-04-21T11:17:32;101491.09;;;14.13;80.58
76024;BME280;64719;52.124;6.226;2023-04-21T11:20:00;101490.94;;;14.20;80.48
76024;BME280;64719;52.124;6.226;2023-04-21T11:22:28;101491.44;;;14.17;80.22
76024;BME280;64719;52.124;6.226;2023-04-21T11:24:56;101483.16;;;14.00;79.98
76024;BME280;64719;52.124;6.226;2023-04-21T11:27:25;101488.63;;;13.89;80.88
76024;BME280;64719;52.124;6.226;2023-04-21T11:29:52;101470.47;;;13.83;81.00
76024;BME280;64719;52.124;6.226;2023-04-21T11:32:20;101483.63;;;13.97;81.28
76024;BME280;64719;52.124;6.226;2023-04-21T11:34:46;101486.56;;;14.19;80.60
76024;BME280;64719;52.124;6.226;2023-04-21T11:37:14;101475.31;;;14.27;78.37
76024;BME280;64719;52.124;6.226;2023-04-21T11:39:42;101471.09;;;14.47;80.15
76024;BME280;64719;52.124;6.226;2023-04-21T11:42:09;101468.34;;;14.59;80.70
76024;BME280;64719;52.124;6.226;2023-04-21T11:44:37;101460.34;;;14.69;79.35
76024;BME280;64719;52.124;6.226;2023-04-21T11:47:11;101458.41;;;14.81;78.03
76024;BME280;64719;52.124;6.226;2023-04-21T11:49:44;101456.00;;;14.85;78.57
76024;BME280;64719;52.124;6.226;2023-04-21T11:52:18;101452.34;;;14.51;80.67
76024;BME280;64719;52.124;6.226;2023-04-21T11:54:45;101458.13;;;14.66;79.77
76024;BME280;64719;52.124;6.226;2023-04-21T11:57:11;101455.41;;;14.54;80.21
76024;BME280;64719;52.124;6.226;2023-04-21T11:59:38;101451.88;;;14.54;80.43
76024;BME280;64719;52.124;6.226;2023-04-21T12:02:05;101453.94;;;14.12;81.92
76024;BME280;64719;52.124;6.226;2023-04-21T12:04:38;101451.94;;;13.96;82.70
76024;BME280;64719;52.124;6.226;2023-04-21T12:07:06;101453.56;;;14.20;83.25
76024;BME280;64719;52.124;6.226;2023-04-21T12:09:35;101459.03;;;14.72;80.93
76024;BME280;64719;52.124;6.226;2023-04-21T12:12:03;101448.56;;;15.58;77.83
76024;BME280;64719;52.124;6.226;2023-04-21T12:14:32;101436.13;;;16.91;74.19
76024;BME280;64719;52.124;6.226;2023-04-21T12:16:58;101441.94;;;17.58;69.15
76024;BME280;64719;52.124;6.226;2023-04-21T12:19:34;101434.44;;;17.17;67.14
76024;BME280;64719;52.124;6.226;2023-04-21T12:22:07;101429.53;;;16.92;69.62
76024;BME280;64719;52.124;6.226;2023-04-21T12:24:34;101427.66;;;16.71;67.13
76024;BME280;64719;52.124;6.226;2023-04-21T12:27:01;101419.06;;;17.16;66.82
76024;BME280;64719;52.124;6.226;2023-04-21T12:29:27;101423.00;;;16.98;65.35
76024;BME280;64719;52.124;6.226;2023-04-21T12:31:54;101415.06;;;16.70;66.56
76024;BME280;64719;52.124;6.226;2023-04-21T12:34:21;101420.72;;;16.42;66.33
76024;BME280;64719;52.124;6.226;2023-04-21T12:36:47;101422.56;;;16.58;67.29
76024;BME280;64719;52.124;6.226;2023-04-21T12:39:15;101415.53;;;17.52;65.52
76024;BME280;64719;52.124;6.226;2023-04-21T12:41:43;101401.38;;;16.49;69.23
76024;BME280;64719;52.124;6.226;2023-04-21T12:44:09;101417.94;;;16.15;69.47
76024;BME280;64719;52.124;6.226;2023-04-21T12:46:36;101404.31;;;15.99;68.66
76024;BME280;64719;52.124;6.226;2023-04-21T12:49:02;101397.69;;;16.38;70.18
76024;BME280;64719;52.124;6.226;2023-04-21T12:51:31;101392.75;;;16.62;69.11